Аэропорт: Хомутово. Южно-Сахалинск

ICAO: UHSS

METAR:
2021-04-21 21:30:00
UHSS 212130Z 36006MPS 9999 SCT007 BKN023CB 01/M00 Q1024 R01/290060 NOSIG RMK MT OBSC QFE767/1022
METAR:
2021-04-21 19:50:00
TAF UHSS 211950Z 2121/2303 36008MPS 9999 BKN025CB TEMPO 2121/2203 -SHSNRA BECMG 2203/2204 36003MPS